sensor_id;sensor_type;location;lat;lon;timestamp;pressure;altitude;pressure_sealevel;temperature;humidity
36980;BME280;22891;50.562;7.272;2022-07-23T00:02:10;100753.00;;;19.04;nan
36980;BME280;22891;50.562;7.272;2022-07-23T00:04:36;100785.00;;;19.13;nan
36980;BME280;22891;50.562;7.272;2022-07-23T00:07:02;100802.00;;;19.21;nan
36980;BME280;22891;50.562;7.272;2022-07-23T00:09:28;100817.00;;;19.09;nan
36980;BME280;22891;50.562;7.272;2022-07-23T00:11:57;100828.00;;;19.00;nan
36980;BME280;22891;50.562;7.272;2022-07-23T00:14:23;100835.00;;;18.98;nan
36980;BME280;22891;50.562;7.272;2022-07-23T00:16:49;100823.00;;;18.94;nan
36980;BME280;22891;50.562;7.272;2022-07-23T00:19:16;100842.00;;;19.03;nan
36980;BME280;22891;50.562;7.272;2022-07-23T00:21:42;100841.00;;;18.99;nan
36980;BME280;22891;50.562;7.272;2022-07-23T00:24:07;100828.00;;;19.00;nan
36980;BME280;22891;50.562;7.272;2022-07-23T00:26:33;100832.00;;;19.00;nan
36980;BME280;22891;50.562;7.272;2022-07-23T00:28:59;100823.00;;;19.09;nan
36980;BME280;22891;50.562;7.272;2022-07-23T00:31:25;100831.00;;;19.12;nan
36980;BME280;22891;50.562;7.272;2022-07-23T00:33:51;100815.00;;;19.12;nan
36980;BME280;22891;50.562;7.272;2022-07-23T00:36:17;100825.00;;;19.02;nan
36980;BME280;22891;50.562;7.272;2022-07-23T00:38:43;100801.00;;;18.95;nan
36980;BME280;22891;50.562;7.272;2022-07-23T00:41:09;100786.00;;;19.04;nan
36980;BME280;22891;50.562;7.272;2022-07-23T00:43:35;100766.00;;;18.98;nan
36980;BME280;22891;50.562;7.272;2022-07-23T00:46:01;100771.00;;;19.01;nan
36980;BME280;22891;50.562;7.272;2022-07-23T00:48:26;100784.00;;;19.00;nan
36980;BME280;22891;50.562;7.272;2022-07-23T00:50:53;100805.00;;;19.09;nan
36980;BME280;22891;50.562;7.272;2022-07-23T00:53:19;100803.00;;;19.05;nan
36980;BME280;22891;50.562;7.272;2022-07-23T00:55:45;100812.00;;;18.88;nan
36980;BME280;22891;50.562;7.272;2022-07-23T00:58:12;100823.00;;;18.98;nan
36980;BME280;22891;50.562;7.272;2022-07-23T01:00:39;100833.00;;;18.94;nan
36980;BME280;22891;50.562;7.272;2022-07-23T01:03:05;100839.00;;;19.07;nan
36980;BME280;22891;50.562;7.272;2022-07-23T01:05:31;100832.00;;;18.98;nan
36980;BME280;22891;50.562;7.272;2022-07-23T01:07:57;100817.00;;;18.99;nan
36980;BME280;22891;50.562;7.272;2022-07-23T01:10:25;100822.00;;;19.04;nan
36980;BME280;22891;50.562;7.272;2022-07-23T01:12:59;100832.00;;;19.06;nan
36980;BME280;22891;50.562;7.272;2022-07-23T01:15:25;100840.00;;;18.98;nan
36980;BME280;22891;50.562;7.272;2022-07-23T01:17:51;100821.00;;;18.92;nan
36980;BME280;22891;50.562;7.272;2022-07-23T01:20:17;100832.00;;;18.92;nan
36980;BME280;22891;50.562;7.272;2022-07-23T01:22:44;100823.00;;;18.91;nan
36980;BME280;22891;50.562;7.272;2022-07-23T01:25:10;100808.00;;;18.98;nan
36980;BME280;22891;50.562;7.272;2022-07-23T01:27:36;100804.00;;;19.02;nan
36980;BME280;22891;50.562;7.272;2022-07-23T01:30:03;100811.00;;;18.97;nan
36980;BME280;22891;50.562;7.272;2022-07-23T01:32:29;100774.00;;;18.77;nan
36980;BME280;22891;50.562;7.272;2022-07-23T01:34:55;100744.00;;;18.75;nan
36980;BME280;22891;50.562;7.272;2022-07-23T01:37:21;100761.00;;;18.82;nan
36980;BME280;22891;50.562;7.272;2022-07-23T01:39:47;100770.00;;;18.69;nan
36980;BME280;22891;50.562;7.272;2022-07-23T01:42:13;100765.00;;;18.72;nan
36980;BME280;22891;50.562;7.272;2022-07-23T01:44:39;100761.00;;;18.63;nan
36980;BME280;22891;50.562;7.272;2022-07-23T01:47:05;100764.00;;;18.65;nan
36980;BME280;22891;50.562;7.272;2022-07-23T01:49:30;100744.00;;;18.53;nan
36980;BME280;22891;50.562;7.272;2022-07-23T01:51:57;100745.00;;;18.66;nan
36980;BME280;22891;50.562;7.272;2022-07-23T01:54:30;100741.00;;;18.70;nan
36980;BME280;22891;50.562;7.272;2022-07-23T01:56:57;100738.00;;;18.70;nan
36980;BME280;22891;50.562;7.272;2022-07-23T01:59:23;100738.00;;;18.64;nan
36980;BME280;22891;50.562;7.272;2022-07-23T02:01:50;100747.00;;;18.66;nan
36980;BME280;22891;50.562;7.272;2022-07-23T02:04:20;100757.00;;;18.67;nan
36980;BME280;22891;50.562;7.272;2022-07-23T02:06:48;100754.00;;;18.75;nan
36980;BME280;22891;50.562;7.272;2022-07-23T02:09:14;100749.00;;;18.62;nan
36980;BME280;22891;50.562;7.272;2022-07-23T02:11:41;100740.00;;;18.66;nan
36980;BME280;22891;50.562;7.272;2022-07-23T02:14:07;100712.00;;;18.50;nan
36980;BME280;22891;50.562;7.272;2022-07-23T02:16:33;100701.00;;;18.50;nan
36980;BME280;22891;50.562;7.272;2022-07-23T02:18:59;100716.00;;;18.57;nan
36980;BME280;22891;50.562;7.272;2022-07-23T02:21:25;100707.00;;;18.43;nan
36980;BME280;22891;50.562;7.272;2022-07-23T02:23:51;100696.00;;;18.27;nan
36980;BME280;22891;50.562;7.272;2022-07-23T02:26:16;100676.00;;;18.21;nan
36980;BME280;22891;50.562;7.272;2022-07-23T02:28:42;100681.00;;;18.24;nan
36980;BME280;22891;50.562;7.272;2022-07-23T02:31:08;100651.00;;;18.03;nan
36980;BME280;22891;50.562;7.272;2022-07-23T02:33:34;100633.00;;;17.91;nan
36980;BME280;22891;50.562;7.272;2022-07-23T02:36:00;100650.00;;;18.07;nan
36980;BME280;22891;50.562;7.272;2022-07-23T02:38:26;100650.00;;;18.11;nan
36980;BME280;22891;50.562;7.272;2022-07-23T02:40:52;100667.00;;;18.17;nan
36980;BME280;22891;50.562;7.272;2022-07-23T02:43:18;100671.00;;;18.15;nan
36980;BME280;22891;50.562;7.272;2022-07-23T02:45:43;100680.00;;;18.12;nan
36980;BME280;22891;50.562;7.272;2022-07-23T02:48:09;100664.00;;;18.04;nan
36980;BME280;22891;50.562;7.272;2022-07-23T02:50:38;100659.00;;;18.04;nan
36980;BME280;22891;50.562;7.272;2022-07-23T02:53:03;100658.00;;;17.99;nan
36980;BME280;22891;50.562;7.272;2022-07-23T02:55:29;100652.00;;;17.81;nan
36980;BME280;22891;50.562;7.272;2022-07-23T02:57:56;100626.00;;;17.71;nan
36980;BME280;22891;50.562;7.272;2022-07-23T03:00:22;100617.00;;;17.56;nan
36980;BME280;22891;50.562;7.272;2022-07-23T03:02:48;100628.00;;;17.63;nan
36980;BME280;22891;50.562;7.272;2022-07-23T03:05:14;100621.00;;;17.75;nan
36980;BME280;22891;50.562;7.272;2022-07-23T03:07:40;100612.00;;;17.61;nan
36980;BME280;22891;50.562;7.272;2022-07-23T03:10:06;100612.00;;;17.66;nan
36980;BME280;22891;50.562;7.272;2022-07-23T03:12:32;100607.00;;;17.66;nan
36980;BME280;22891;50.562;7.272;2022-07-23T03:14:57;100609.00;;;17.66;nan
36980;BME280;22891;50.562;7.272;2022-07-23T03:17:23;100607.00;;;17.66;nan
36980;BME280;22891;50.562;7.272;2022-07-23T03:19:49;100601.00;;;17.66;nan
36980;BME280;22891;50.562;7.272;2022-07-23T03:22:15;100606.00;;;17.69;nan
36980;BME280;22891;50.562;7.272;2022-07-23T03:24:41;100587.00;;;17.55;nan
36980;BME280;22891;50.562;7.272;2022-07-23T03:27:19;100585.00;;;17.56;nan
36980;BME280;22891;50.562;7.272;2022-07-23T03:29:45;100581.00;;;17.40;nan
36980;BME280;22891;50.562;7.272;2022-07-23T03:32:11;100585.00;;;17.43;nan
36980;BME280;22891;50.562;7.272;2022-07-23T03:34:37;100579.00;;;17.43;nan
36980;BME280;22891;50.562;7.272;2022-07-23T03:37:04;100582.00;;;17.45;nan
36980;BME280;22891;50.562;7.272;2022-07-23T03:39:30;100596.00;;;17.32;nan
36980;BME280;22891;50.562;7.272;2022-07-23T03:41:56;100583.00;;;17.44;nan
36980;BME280;22891;50.562;7.272;2022-07-23T03:44:22;100587.00;;;17.44;nan
36980;BME280;22891;50.562;7.272;2022-07-23T03:46:47;100587.00;;;17.44;nan
36980;BME280;22891;50.562;7.272;2022-07-23T03:49:14;100580.00;;;17.33;nan
36980;BME280;22891;50.562;7.272;2022-07-23T03:54:05;100588.00;;;17.41;nan
36980;BME280;22891;50.562;7.272;2022-07-23T03:56:31;100581.00;;;17.25;nan
36980;BME280;22891;50.562;7.272;2022-07-23T03:58:57;100586.00;;;17.40;nan
36980;BME280;22891;50.562;7.272;2022-07-23T04:01:23;100587.00;;;17.25;nan
36980;BME280;22891;50.562;7.272;2022-07-23T04:03:49;100584.00;;;17.23;nan
36980;BME280;22891;50.562;7.272;2022-07-23T04:06:15;100586.00;;;17.18;nan
36980;BME280;22891;50.562;7.272;2022-07-23T04:08:41;100586.00;;;17.34;nan
36980;BME280;22891;50.562;7.272;2022-07-23T04:11:07;100609.00;;;17.61;nan
36980;BME280;22891;50.562;7.272;2022-07-23T04:13:33;100634.00;;;18.15;nan
36980;BME280;22891;50.562;7.272;2022-07-23T04:15:59;100677.00;;;18.47;nan
36980;BME280;22891;50.562;7.272;2022-07-23T04:18:25;100721.00;;;18.57;nan
36980;BME280;22891;50.562;7.272;2022-07-23T04:20:52;100749.00;;;18.87;nan
36980;BME280;22891;50.562;7.272;2022-07-23T04:23:18;100740.00;;;18.99;nan
36980;BME280;22891;50.562;7.272;2022-07-23T04:25:44;100760.00;;;18.90;nan
36980;BME280;22891;50.562;7.272;2022-07-23T04:28:10;100781.00;;;19.05;nan
36980;BME280;22891;50.562;7.272;2022-07-23T04:30:36;100806.00;;;19.23;nan
36980;BME280;22891;50.562;7.272;2022-07-23T04:33:03;100844.00;;;19.43;nan
36980;BME280;22891;50.562;7.272;2022-07-23T04:35:35;100854.00;;;19.07;nan
36980;BME280;22891;50.562;7.272;2022-07-23T04:38:02;100857.00;;;19.28;nan
36980;BME280;22891;50.562;7.272;2022-07-23T04:40:28;100866.00;;;19.24;nan
36980;BME280;22891;50.562;7.272;2022-07-23T04:42:54;100875.00;;;19.23;nan
36980;BME280;22891;50.562;7.272;2022-07-23T04:45:20;100857.00;;;18.73;nan
36980;BME280;22891;50.562;7.272;2022-07-23T04:47:49;100833.00;;;18.65;nan
36980;BME280;22891;50.562;7.272;2022-07-23T04:50:16;100813.00;;;18.56;nan
36980;BME280;22891;50.562;7.272;2022-07-23T04:52:47;100803.00;;;18.71;nan
36980;BME280;22891;50.562;7.272;2022-07-23T04:55:14;100829.00;;;18.77;nan
36980;BME280;22891;50.562;7.272;2022-07-23T04:57:40;100835.00;;;19.01;nan
36980;BME280;22891;50.562;7.272;2022-07-23T05:00:07;100857.00;;;19.18;nan
36980;BME280;22891;50.562;7.272;2022-07-23T05:02:33;100885.00;;;19.21;nan
36980;BME280;22891;50.562;7.272;2022-07-23T05:04:59;100862.00;;;18.50;nan
36980;BME280;22891;50.562;7.272;2022-07-23T05:07:25;100828.00;;;18.68;nan
36980;BME280;22891;50.562;7.272;2022-07-23T05:09:51;100805.00;;;18.54;nan
36980;BME280;22891;50.562;7.272;2022-07-23T05:12:16;100782.00;;;18.44;nan
36980;BME280;22891;50.562;7.272;2022-07-23T05:14:42;100779.00;;;18.64;nan
36980;BME280;22891;50.562;7.272;2022-07-23T05:17:08;100779.00;;;18.69;nan
36980;BME280;22891;50.562;7.272;2022-07-23T05:19:34;100761.00;;;18.60;nan
36980;BME280;22891;50.562;7.272;2022-07-23T05:22:00;100765.00;;;18.53;nan
36980;BME280;22891;50.562;7.272;2022-07-23T05:24:26;100772.00;;;18.83;nan
36980;BME280;22891;50.562;7.272;2022-07-23T05:26:52;100805.00;;;19.09;nan
36980;BME280;22891;50.562;7.272;2022-07-23T05:29:18;100829.00;;;19.50;nan
36980;BME280;22891;50.562;7.272;2022-07-23T05:31:44;100846.00;;;19.18;nan
36980;BME280;22891;50.562;7.272;2022-07-23T05:34:10;100829.00;;;19.03;nan
36980;BME280;22891;50.562;7.272;2022-07-23T05:36:35;100827.00;;;18.97;nan
36980;BME280;22891;50.562;7.272;2022-07-23T05:39:03;100828.00;;;18.94;nan
36980;BME280;22891;50.562;7.272;2022-07-23T05:41:30;100840.00;;;18.97;nan
36980;BME280;22891;50.562;7.272;2022-07-23T05:43:56;100853.00;;;18.99;nan
36980;BME280;22891;50.562;7.272;2022-07-23T05:46:22;100846.00;;;18.94;nan
36980;BME280;22891;50.562;7.272;2022-07-23T05:48:48;100841.00;;;18.76;nan
36980;BME280;22891;50.562;7.272;2022-07-23T05:51:25;100850.00;;;18.69;nan
36980;BME280;22891;50.562;7.272;2022-07-23T05:53:51;100845.00;;;18.72;nan
36980;BME280;22891;50.562;7.272;2022-07-23T05:56:18;100840.00;;;18.95;nan
36980;BME280;22891;50.562;7.272;2022-07-23T05:58:44;100858.00;;;19.12;nan
36980;BME280;22891;50.562;7.272;2022-07-23T06:01:10;100868.00;;;19.27;nan
36980;BME280;22891;50.562;7.272;2022-07-23T06:03:37;100881.00;;;19.37;nan
36980;BME280;22891;50.562;7.272;2022-07-23T06:06:04;100883.00;;;19.16;nan
36980;BME280;22891;50.562;7.272;2022-07-23T06:08:30;100896.00;;;18.94;nan
36980;BME280;22891;50.562;7.272;2022-07-23T06:10:56;100871.00;;;19.01;nan
36980;BME280;22891;50.562;7.272;2022-07-23T06:13:22;100876.00;;;18.88;nan
36980;BME280;22891;50.562;7.272;2022-07-23T06:15:48;100874.00;;;19.09;nan
36980;BME280;22891;50.562;7.272;2022-07-23T06:18:15;100901.00;;;19.10;nan
36980;BME280;22891;50.562;7.272;2022-07-23T06:20:41;100911.00;;;19.04;nan
36980;BME280;22891;50.562;7.272;2022-07-23T06:23:07;100907.00;;;19.19;nan
36980;BME280;22891;50.562;7.272;2022-07-23T06:25:32;100919.00;;;19.08;nan
36980;BME280;22891;50.562;7.272;2022-07-23T06:27:58;100903.00;;;19.06;nan
36980;BME280;22891;50.562;7.272;2022-07-23T06:30:26;100913.00;;;18.91;nan
36980;BME280;22891;50.562;7.272;2022-07-23T06:32:52;100916.00;;;19.09;nan
36980;BME280;22891;50.562;7.272;2022-07-23T06:35:18;100924.00;;;19.14;nan
36980;BME280;22891;50.562;7.272;2022-07-23T06:37:44;100917.00;;;19.08;nan
36980;BME280;22891;50.562;7.272;2022-07-23T06:40:10;100917.00;;;18.95;nan
36980;BME280;22891;50.562;7.272;2022-07-23T06:42:36;100911.00;;;18.98;nan
36980;BME280;22891;50.562;7.272;2022-07-23T06:45:06;100924.00;;;19.01;nan
36980;BME280;22891;50.562;7.272;2022-07-23T06:47:32;100928.00;;;19.26;nan
36980;BME280;22891;50.562;7.272;2022-07-23T06:49:58;100932.00;;;19.45;nan
36980;BME280;22891;50.562;7.272;2022-07-23T06:52:24;100957.00;;;19.72;nan
36980;BME280;22891;50.562;7.272;2022-07-23T06:54:49;100969.00;;;19.51;nan
36980;BME280;22891;50.562;7.272;2022-07-23T06:57:16;100953.00;;;19.14;nan
36980;BME280;22891;50.562;7.272;2022-07-23T06:59:42;100954.00;;;19.54;nan
36980;BME280;22891;50.562;7.272;2022-07-23T07:02:08;100973.00;;;19.99;nan
36980;BME280;22891;50.562;7.272;2022-07-23T07:04:34;101013.00;;;20.30;nan
36980;BME280;22891;50.562;7.272;2022-07-23T07:07:00;101027.00;;;20.57;nan
36980;BME280;22891;50.562;7.272;2022-07-23T07:09:27;101045.00;;;20.52;nan
36980;BME280;22891;50.562;7.272;2022-07-23T07:11:52;101074.00;;;20.63;nan
36980;BME280;22891;50.562;7.272;2022-07-23T07:14:19;101115.00;;;20.75;nan
36980;BME280;22891;50.562;7.272;2022-07-23T07:16:46;101112.00;;;21.42;nan
36980;BME280;22891;50.562;7.272;2022-07-23T07:19:11;101146.00;;;21.36;nan
36980;BME280;22891;50.562;7.272;2022-07-23T07:21:37;101155.00;;;21.39;nan
36980;BME280;22891;50.562;7.272;2022-07-23T07:24:04;101167.00;;;21.88;nan
36980;BME280;22891;50.562;7.272;2022-07-23T07:26:30;101172.00;;;21.41;nan
36980;BME280;22891;50.562;7.272;2022-07-23T07:28:56;101187.00;;;21.58;nan
36980;BME280;22891;50.562;7.272;2022-07-23T07:31:22;101204.00;;;22.02;nan
36980;BME280;22891;50.562;7.272;2022-07-23T07:33:49;101227.00;;;22.40;nan
36980;BME280;22891;50.562;7.272;2022-07-23T07:36:14;101245.00;;;22.49;nan
36980;BME280;22891;50.562;7.272;2022-07-23T07:38:41;101250.00;;;22.45;nan
36980;BME280;22891;50.562;7.272;2022-07-23T07:41:06;101269.00;;;22.76;nan
36980;BME280;22891;50.562;7.272;2022-07-23T07:43:33;101266.00;;;22.72;nan
36980;BME280;22891;50.562;7.272;2022-07-23T07:45:59;101287.00;;;23.06;nan
36980;BME280;22891;50.562;7.272;2022-07-23T07:48:24;101300.00;;;23.34;nan
36980;BME280;22891;50.562;7.272;2022-07-23T07:50:50;101313.00;;;23.84;nan
36980;BME280;22891;50.562;7.272;2022-07-23T07:53:16;101329.00;;;23.48;nan
36980;BME280;22891;50.562;7.272;2022-07-23T07:55:42;101320.00;;;23.72;nan
36980;BME280;22891;50.562;7.272;2022-07-23T07:58:08;101326.00;;;23.63;nan
36980;BME280;22891;50.562;7.272;2022-07-23T08:00:34;101331.00;;;24.59;nan
36980;BME280;22891;50.562;7.272;2022-07-23T08:03:00;101343.00;;;24.69;nan
36980;BME280;22891;50.562;7.272;2022-07-23T08:05:28;101336.00;;;24.73;nan
36980;BME280;22891;50.562;7.272;2022-07-23T08:07:59;101348.00;;;25.62;nan
36980;BME280;22891;50.562;7.272;2022-07-23T08:10:27;101355.00;;;26.03;nan
36980;BME280;22891;50.562;7.272;2022-07-23T08:12:55;101347.00;;;24.69;nan
36980;BME280;22891;50.562;7.272;2022-07-23T08:15:23;101343.00;;;25.30;nan
36980;BME280;22891;50.562;7.272;2022-07-23T08:17:50;101360.00;;;25.73;nan
36980;BME280;22891;50.562;7.272;2022-07-23T08:20:19;101363.00;;;25.42;nan
36980;BME280;22891;50.562;7.272;2022-07-23T08:22:57;101360.00;;;25.50;nan
36980;BME280;22891;50.562;7.272;2022-07-23T08:25:29;101354.00;;;25.92;nan
36980;BME280;22891;50.562;7.272;2022-07-23T08:27:56;101358.00;;;26.13;nan
36980;BME280;22891;50.562;7.272;2022-07-23T08:30:22;101358.00;;;26.39;nan
36980;BME280;22891;50.562;7.272;2022-07-23T08:32:57;101363.00;;;27.00;nan
36980;BME280;22891;50.562;7.272;2022-07-23T08:35:36;101356.00;;;26.92;nan
36980;BME280;22891;50.562;7.272;2022-07-23T08:38:04;101365.00;;;26.42;nan
36980;BME280;22891;50.562;7.272;2022-07-23T08:40:33;101369.00;;;26.18;nan
36980;BME280;22891;50.562;7.272;2022-07-23T08:43:06;101367.00;;;26.10;nan
36980;BME280;22891;50.562;7.272;2022-07-23T08:45:36;101361.00;;;26.33;nan
36980;BME280;22891;50.562;7.272;2022-07-23T08:48:03;101366.00;;;26.77;nan
36980;BME280;22891;50.562;7.272;2022-07-23T08:50:29;101373.00;;;27.02;nan
36980;BME280;22891;50.562;7.272;2022-07-23T08:52:54;101372.00;;;26.95;nan
36980;BME280;22891;50.562;7.272;2022-07-23T08:55:23;101371.00;;;26.65;nan
36980;BME280;22891;50.562;7.272;2022-07-23T08:57:51;101369.00;;;28.18;nan
36980;BME280;22891;50.562;7.272;2022-07-23T09:00:19;101380.00;;;27.43;nan
36980;BME280;22891;50.562;7.272;2022-07-23T09:02:46;101362.00;;;27.55;nan
36980;BME280;22891;50.562;7.272;2022-07-23T09:05:13;101382.00;;;27.80;nan
36980;BME280;22891;50.562;7.272;2022-07-23T09:08:07;101367.00;;;28.44;nan
36980;BME280;22891;50.562;7.272;2022-07-23T09:10:50;101379.00;;;28.50;nan
36980;BME280;22891;50.562;7.272;2022-07-23T09:13:31;101375.00;;;27.86;nan
36980;BME280;22891;50.562;7.272;2022-07-23T09:19:09;101366.00;;;28.20;nan
36980;BME280;22891;50.562;7.272;2022-07-23T09:21:38;101371.00;;;28.76;nan
36980;BME280;22891;50.562;7.272;2022-07-23T09:26:46;101385.00;;;28.96;nan
36980;BME280;22891;50.562;7.272;2022-07-23T09:29:25;101377.00;;;29.19;nan
36980;BME280;22891;50.562;7.272;2022-07-23T09:32:01;101359.00;;;29.38;nan
36980;BME280;22891;50.562;7.272;2022-07-23T09:34:35;101383.00;;;29.36;nan
36980;BME280;22891;50.562;7.272;2022-07-23T09:37:28;101382.00;;;29.42;nan
36980;BME280;22891;50.562;7.272;2022-07-23T09:40:04;101376.00;;;29.51;nan
36980;BME280;22891;50.562;7.272;2022-07-23T09:42:30;101368.00;;;29.20;nan
36980;BME280;22891;50.562;7.272;2022-07-23T09:44:57;101365.00;;;29.33;nan
36980;BME280;22891;50.562;7.272;2022-07-23T09:47:27;101376.00;;;29.85;nan
36980;BME280;22891;50.562;7.272;2022-07-23T09:50:10;101358.00;;;29.88;nan
36980;BME280;22891;50.562;7.272;2022-07-23T09:52:56;101378.00;;;30.12;nan
36980;BME280;22891;50.562;7.272;2022-07-23T09:55:32;101379.00;;;30.49;nan
36980;BME280;22891;50.562;7.272;2022-07-23T09:58:07;101375.00;;;29.44;nan
36980;BME280;22891;50.562;7.272;2022-07-23T10:00:40;101362.00;;;29.93;nan
36980;BME280;22891;50.562;7.272;2022-07-23T10:03:06;101376.00;;;29.28;nan
36980;BME280;22891;50.562;7.272;2022-07-23T10:05:35;101376.00;;;28.95;nan
36980;BME280;22891;50.562;7.272;2022-07-23T10:08:03;101364.00;;;29.16;nan
36980;BME280;22891;50.562;7.272;2022-07-23T10:10:30;101363.00;;;30.06;nan
36980;BME280;22891;50.562;7.272;2022-07-23T10:12:57;101369.00;;;30.43;nan
36980;BME280;22891;50.562;7.272;2022-07-23T10:22:19;101370.00;;;30.84;nan
36980;BME280;22891;50.562;7.272;2022-07-23T10:35:54;101362.00;;;29.96;nan
36980;BME280;22891;50.562;7.272;2022-07-23T10:38:29;101354.00;;;30.49;nan
36980;BME280;22891;50.562;7.272;2022-07-23T10:41:02;101354.00;;;29.83;nan
36980;BME280;22891;50.562;7.272;2022-07-23T10:46:26;101339.00;;;30.75;nan
36980;BME280;22891;50.562;7.272;2022-07-23T10:49:26;101346.00;;;31.09;nan
36980;BME280;22891;50.562;7.272;2022-07-23T10:53:59;101342.00;;;30.87;nan
36980;BME280;22891;50.562;7.272;2022-07-23T11:01:01;101338.00;;;30.87;nan
36980;BME280;22891;50.562;7.272;2022-07-23T11:03:33;101338.00;;;30.82;nan
36980;BME280;22891;50.562;7.272;2022-07-23T11:06:03;101344.00;;;30.48;nan
36980;BME280;22891;50.562;7.272;2022-07-23T11:08:29;101335.00;;;30.92;nan
36980;BME280;22891;50.562;7.272;2022-07-23T11:11:08;101338.00;;;31.06;nan
36980;BME280;22891;50.562;7.272;2022-07-23T11:13:46;101333.00;;;31.44;nan
36980;BME280;22891;50.562;7.272;2022-07-23T11:16:18;101337.00;;;31.13;nan
36980;BME280;22891;50.562;7.272;2022-07-23T11:19:05;101341.00;;;32.06;nan
36980;BME280;22891;50.562;7.272;2022-07-23T11:21:41;101324.00;;;32.12;nan
36980;BME280;22891;50.562;7.272;2022-07-23T11:24:08;101330.00;;;32.00;nan
36980;BME280;22891;50.562;7.272;2022-07-23T11:26:56;101335.00;;;31.45;nan
36980;BME280;22891;50.562;7.272;2022-07-23T11:29:40;101329.00;;;31.38;nan
36980;BME280;22891;50.562;7.272;2022-07-23T11:32:19;101333.00;;;32.11;nan
36980;BME280;22891;50.562;7.272;2022-07-23T11:34:47;101326.00;;;32.03;nan
36980;BME280;22891;50.562;7.272;2022-07-23T11:37:28;101325.00;;;31.73;nan
36980;BME280;22891;50.562;7.272;2022-07-23T11:39:56;101320.00;;;31.76;nan
36980;BME280;22891;50.562;7.272;2022-07-23T11:42:22;101315.00;;;32.49;nan
36980;BME280;22891;50.562;7.272;2022-07-23T11:44:50;101317.00;;;32.27;nan
36980;BME280;22891;50.562;7.272;2022-07-23T11:47:22;101317.00;;;31.97;nan
36980;BME280;22891;50.562;7.272;2022-07-23T11:49:59;101314.00;;;32.15;nan
36980;BME280;22891;50.562;7.272;2022-07-23T11:52:27;101320.00;;;30.43;nan
36980;BME280;22891;50.562;7.272;2022-07-23T11:54:59;101315.00;;;31.02;nan
36980;BME280;22891;50.562;7.272;2022-07-23T11:57:31;101317.00;;;31.24;nan
36980;BME280;22891;50.562;7.272;2022-07-23T12:00:23;101311.00;;;32.12;nan
36980;BME280;22891;50.562;7.272;2022-07-23T12:03:01;101312.00;;;32.45;nan
36980;BME280;22891;50.562;7.272;2022-07-23T12:05:33;101309.00;;;32.43;nan
36980;BME280;22891;50.562;7.272;2022-07-23T12:08:01;101310.00;;;31.55;nan
36980;BME280;22891;50.562;7.272;2022-07-23T12:10:37;101319.00;;;30.79;nan
36980;BME280;22891;50.562;7.272;2022-07-23T12:13:12;101313.00;;;30.70;nan
36980;BME280;22891;50.562;7.272;2022-07-23T12:15:43;101309.00;;;30.54;nan
36980;BME280;22891;50.562;7.272;2022-07-23T12:18:11;101305.00;;;30.89;nan
36980;BME280;22891;50.562;7.272;2022-07-23T12:20:43;101307.00;;;30.42;nan
36980;BME280;22891;50.562;7.272;2022-07-23T12:23:11;101307.00;;;30.38;nan
36980;BME280;22891;50.562;7.272;2022-07-23T12:25:39;101310.00;;;31.13;nan
36980;BME280;22891;50.562;7.272;2022-07-23T12:28:11;101305.00;;;31.52;nan
36980;BME280;22891;50.562;7.272;2022-07-23T12:30:51;101316.00;;;31.43;nan
36980;BME280;22891;50.562;7.272;2022-07-23T12:34:18;101319.00;;;30.95;nan
36980;BME280;22891;50.562;7.272;2022-07-23T12:36:44;101308.00;;;30.55;nan
36980;BME280;22891;50.562;7.272;2022-07-23T12:39:10;101307.00;;;30.48;nan
36980;BME280;22891;50.562;7.272;2022-07-23T12:41:52;101306.00;;;30.84;nan
36980;BME280;22891;50.562;7.272;2022-07-23T12:44:18;101315.00;;;30.32;nan
36980;BME280;22891;50.562;7.272;2022-07-23T12:46:50;101312.00;;;30.61;nan
36980;BME280;22891;50.562;7.272;2022-07-23T12:49:27;101310.00;;;30.80;nan
36980;BME280;22891;50.562;7.272;2022-07-23T12:51:54;101315.00;;;30.37;nan
36980;BME280;22891;50.562;7.272;2022-07-23T12:54:27;101313.00;;;30.58;nan
36980;BME280;22891;50.562;7.272;2022-07-23T12:56:53;101309.00;;;30.01;nan
36980;BME280;22891;50.562;7.272;2022-07-23T12:59:19;101315.00;;;30.37;nan
36980;BME280;22891;50.562;7.272;2022-07-23T13:01:54;101316.00;;;30.11;nan
36980;BME280;22891;50.562;7.272;2022-07-23T13:04:22;101313.00;;;30.09;nan
36980;BME280;22891;50.562;7.272;2022-07-23T13:06:54;101328.00;;;30.58;nan
36980;BME280;22891;50.562;7.272;2022-07-23T13:09:23;101330.00;;;30.52;nan
36980;BME280;22891;50.562;7.272;2022-07-23T13:11:51;101319.00;;;30.49;nan
36980;BME280;22891;50.562;7.272;2022-07-23T13:14:19;101314.00;;;31.04;nan
36980;BME280;22891;50.562;7.272;2022-07-23T13:16:46;101316.00;;;30.44;nan
36980;BME280;22891;50.562;7.272;2022-07-23T13:19:12;101303.00;;;30.56;nan
36980;BME280;22891;50.562;7.272;2022-07-23T13:21:40;101311.00;;;30.66;nan
36980;BME280;22891;50.562;7.272;2022-07-23T13:24:06;101307.00;;;30.41;nan
36980;BME280;22891;50.562;7.272;2022-07-23T13:26:33;101302.00;;;30.05;nan
36980;BME280;22891;50.562;7.272;2022-07-23T13:28:58;101302.00;;;30.25;nan
36980;BME280;22891;50.562;7.272;2022-07-23T13:31:25;101311.00;;;30.67;nan
36980;BME280;22891;50.562;7.272;2022-07-23T13:33:51;101300.00;;;30.60;nan
36980;BME280;22891;50.562;7.272;2022-07-23T13:36:17;101308.00;;;30.60;nan
36980;BME280;22891;50.562;7.272;2022-07-23T13:38:43;101303.00;;;30.95;nan
36980;BME280;22891;50.562;7.272;2022-07-23T13:41:09;101300.00;;;31.17;nan
36980;BME280;22891;50.562;7.272;2022-07-23T13:43:35;101303.00;;;30.76;nan
36980;BME280;22891;50.562;7.272;2022-07-23T13:46:01;101310.00;;;30.53;nan
36980;BME280;22891;50.562;7.272;2022-07-23T13:48:27;101296.00;;;30.43;nan
36980;BME280;22891;50.562;7.272;2022-07-23T13:50:54;101295.00;;;30.39;nan
36980;BME280;22891;50.562;7.272;2022-07-23T13:53:23;101304.00;;;30.83;nan